Terminal Aerodrome Forecast
Issued by NWS Cleveland, OH

Home | Current Version | Previous Version | Graphics & Text | Print | Product List | Glossary On
Versions: 1 2 3 4 5 6 7 8 9 10 11 12 13 14 15
000
FTUS41 KCLE 201720
TAFCAK
TAF
KCAK 201720Z 2018/2118 22017G25KT P6SM SCT035 BKN070
     FM202300 19012G20KT P6SM BKN130
     FM211100 21014G23KT P6SM SHRA OVC030
     FM211200 21014KT P6SM SHRA OVC025
     FM211500 27011KT 4SM SHRA OVC007=

USA.gov is the U.S. government's official web portal to all federal, state and local government web resources and services.